sensor_id;sensor_type;location;lat;lon;timestamp;temperature;humidity
50758;DHT22;36732;47.980;11.652;2023-08-01T00:00:49;23.20;48.40
50758;DHT22;36732;47.980;11.652;2023-08-01T00:03:15;23.30;48.40
50758;DHT22;36732;47.980;11.652;2023-08-01T00:05:41;23.20;48.30
50758;DHT22;36732;47.980;11.652;2023-08-01T00:08:11;23.20;48.20
50758;DHT22;36732;47.980;11.652;2023-08-01T00:10:38;23.20;48.20
50758;DHT22;36732;47.980;11.652;2023-08-01T00:13:04;23.20;48.20
50758;DHT22;36732;47.980;11.652;2023-08-01T00:15:30;23.20;48.20
50758;DHT22;36732;47.980;11.652;2023-08-01T00:17:55;23.20;48.10
50758;DHT22;36732;47.980;11.652;2023-08-01T00:20:21;23.20;48.20
50758;DHT22;36732;47.980;11.652;2023-08-01T00:22:47;23.20;48.30
50758;DHT22;36732;47.980;11.652;2023-08-01T00:25:13;23.20;48.30
50758;DHT22;36732;47.980;11.652;2023-08-01T00:27:39;23.20;48.20
50758;DHT22;36732;47.980;11.652;2023-08-01T00:30:05;23.20;48.30
50758;DHT22;36732;47.980;11.652;2023-08-01T00:32:31;23.20;48.40
50758;DHT22;36732;47.980;11.652;2023-08-01T00:34:57;23.20;48.40
50758;DHT22;36732;47.980;11.652;2023-08-01T00:37:22;23.20;48.40
50758;DHT22;36732;47.980;11.652;2023-08-01T00:39:48;23.20;48.50
50758;DHT22;36732;47.980;11.652;2023-08-01T00:42:14;23.20;49.10
50758;DHT22;36732;47.980;11.652;2023-08-01T00:44:40;23.20;48.60
50758;DHT22;36732;47.980;11.652;2023-08-01T00:47:06;23.20;48.50
50758;DHT22;36732;47.980;11.652;2023-08-01T00:49:32;23.20;48.60
50758;DHT22;36732;47.980;11.652;2023-08-01T00:51:58;23.20;48.60
50758;DHT22;36732;47.980;11.652;2023-08-01T00:54:25;23.20;48.70
50758;DHT22;36732;47.980;11.652;2023-08-01T00:56:51;23.20;48.90
50758;DHT22;36732;47.980;11.652;2023-08-01T00:59:16;23.20;48.90
50758;DHT22;36732;47.980;11.652;2023-08-01T01:01:42;23.20;48.90
50758;DHT22;36732;47.980;11.652;2023-08-01T01:04:08;23.20;48.90
50758;DHT22;36732;47.980;11.652;2023-08-01T01:06:53;23.20;48.90
50758;DHT22;36732;47.980;11.652;2023-08-01T01:09:23;23.20;49.30
50758;DHT22;36732;47.980;11.652;2023-08-01T01:11:49;23.20;49.10
50758;DHT22;36732;47.980;11.652;2023-08-01T01:14:15;23.20;49.10
50758;DHT22;36732;47.980;11.652;2023-08-01T01:16:40;23.20;49.20
50758;DHT22;36732;47.980;11.652;2023-08-01T01:19:08;23.10;49.30
50758;DHT22;36732;47.980;11.652;2023-08-01T01:21:41;23.20;49.40
50758;DHT22;36732;47.980;11.652;2023-08-01T01:24:09;23.10;49.40
50758;DHT22;36732;47.980;11.652;2023-08-01T01:26:36;23.10;49.50
50758;DHT22;36732;47.980;11.652;2023-08-01T01:29:03;23.10;49.60
50758;DHT22;36732;47.980;11.652;2023-08-01T01:31:31;23.10;49.70
50758;DHT22;36732;47.980;11.652;2023-08-01T01:33:58;23.10;49.80
50758;DHT22;36732;47.980;11.652;2023-08-01T01:36:24;23.10;49.70
50758;DHT22;36732;47.980;11.652;2023-08-01T01:38:50;23.10;49.80
50758;DHT22;36732;47.980;11.652;2023-08-01T01:41:15;23.10;49.80
50758;DHT22;36732;47.980;11.652;2023-08-01T01:43:41;23.10;49.90
50758;DHT22;36732;47.980;11.652;2023-08-01T01:46:07;23.10;49.90
50758;DHT22;36732;47.980;11.652;2023-08-01T01:48:32;23.10;49.90
50758;DHT22;36732;47.980;11.652;2023-08-01T01:50:58;23.10;50.00
50758;DHT22;36732;47.980;11.652;2023-08-01T01:53:24;23.10;49.90
50758;DHT22;36732;47.980;11.652;2023-08-01T01:55:50;23.10;50.00
50758;DHT22;36732;47.980;11.652;2023-08-01T01:58:15;23.10;50.10
50758;DHT22;36732;47.980;11.652;2023-08-01T02:00:41;23.10;50.10
50758;DHT22;36732;47.980;11.652;2023-08-01T02:03:07;23.10;50.20
50758;DHT22;36732;47.980;11.652;2023-08-01T02:05:36;23.10;50.40
50758;DHT22;36732;47.980;11.652;2023-08-01T02:08:02;23.10;50.30
50758;DHT22;36732;47.980;11.652;2023-08-01T02:10:30;23.10;50.40
50758;DHT22;36732;47.980;11.652;2023-08-01T02:12:55;23.10;50.50
50758;DHT22;36732;47.980;11.652;2023-08-01T02:15:21;23.10;51.50
50758;DHT22;36732;47.980;11.652;2023-08-01T02:17:47;23.10;51.10
50758;DHT22;36732;47.980;11.652;2023-08-01T02:20:13;23.00;51.40
50758;DHT22;36732;47.980;11.652;2023-08-01T02:22:38;23.10;51.90
50758;DHT22;36732;47.980;11.652;2023-08-01T02:25:04;23.10;52.10
50758;DHT22;36732;47.980;11.652;2023-08-01T02:27:30;23.00;52.30
50758;DHT22;36732;47.980;11.652;2023-08-01T02:29:56;23.00;52.70
50758;DHT22;36732;47.980;11.652;2023-08-01T02:32:22;23.00;52.80
50758;DHT22;36732;47.980;11.652;2023-08-01T02:34:47;23.00;53.00
50758;DHT22;36732;47.980;11.652;2023-08-01T02:37:13;23.00;53.20
50758;DHT22;36732;47.980;11.652;2023-08-01T02:39:39;23.00;53.10
50758;DHT22;36732;47.980;11.652;2023-08-01T02:42:05;23.00;53.20
50758;DHT22;36732;47.980;11.652;2023-08-01T02:44:30;23.00;53.30
50758;DHT22;36732;47.980;11.652;2023-08-01T02:46:56;23.00;53.30
50758;DHT22;36732;47.980;11.652;2023-08-01T02:49:22;23.00;53.30
50758;DHT22;36732;47.980;11.652;2023-08-01T02:51:48;22.90;53.30
50758;DHT22;36732;47.980;11.652;2023-08-01T02:54:13;22.90;53.20
50758;DHT22;36732;47.980;11.652;2023-08-01T02:56:39;22.90;53.20
50758;DHT22;36732;47.980;11.652;2023-08-01T02:59:09;22.90;53.90
50758;DHT22;36732;47.980;11.652;2023-08-01T03:01:36;22.90;53.50
50758;DHT22;36732;47.980;11.652;2023-08-01T03:04:03;22.90;53.40
50758;DHT22;36732;47.980;11.652;2023-08-01T03:06:30;22.90;53.40
50758;DHT22;36732;47.980;11.652;2023-08-01T03:08:57;22.80;53.40
50758;DHT22;36732;47.980;11.652;2023-08-01T03:11:22;22.90;53.50
50758;DHT22;36732;47.980;11.652;2023-08-01T03:13:48;22.80;53.50
50758;DHT22;36732;47.980;11.652;2023-08-01T03:16:14;22.80;53.80
50758;DHT22;36732;47.980;11.652;2023-08-01T03:18:39;22.80;54.00
50758;DHT22;36732;47.980;11.652;2023-08-01T03:21:05;22.80;54.20
50758;DHT22;36732;47.980;11.652;2023-08-01T03:23:31;22.80;54.40
50758;DHT22;36732;47.980;11.652;2023-08-01T03:25:57;22.80;54.30
50758;DHT22;36732;47.980;11.652;2023-08-01T03:28:23;22.80;54.50
50758;DHT22;36732;47.980;11.652;2023-08-01T03:30:50;22.80;54.40
50758;DHT22;36732;47.980;11.652;2023-08-01T03:33:16;22.70;54.40
50758;DHT22;36732;47.980;11.652;2023-08-01T03:35:42;22.70;54.50
50758;DHT22;36732;47.980;11.652;2023-08-01T03:38:08;22.70;54.50
50758;DHT22;36732;47.980;11.652;2023-08-01T03:40:33;22.70;54.50
50758;DHT22;36732;47.980;11.652;2023-08-01T03:42:59;22.70;54.60
50758;DHT22;36732;47.980;11.652;2023-08-01T03:45:25;22.70;54.60
50758;DHT22;36732;47.980;11.652;2023-08-01T03:47:50;22.70;54.50
50758;DHT22;36732;47.980;11.652;2023-08-01T03:50:16;22.70;55.20
50758;DHT22;36732;47.980;11.652;2023-08-01T03:52:42;22.70;54.60
50758;DHT22;36732;47.980;11.652;2023-08-01T03:55:08;22.60;54.50
50758;DHT22;36732;47.980;11.652;2023-08-01T03:57:34;22.60;54.50
50758;DHT22;36732;47.980;11.652;2023-08-01T04:00:00;22.60;54.60
50758;DHT22;36732;47.980;11.652;2023-08-01T04:02:26;22.60;54.70
50758;DHT22;36732;47.980;11.652;2023-08-01T04:04:51;22.60;54.90
50758;DHT22;36732;47.980;11.652;2023-08-01T04:07:18;22.60;55.10
50758;DHT22;36732;47.980;11.652;2023-08-01T04:09:44;22.60;55.20
50758;DHT22;36732;47.980;11.652;2023-08-01T04:12:10;22.60;55.50
50758;DHT22;36732;47.980;11.652;2023-08-01T04:14:35;22.60;55.50
50758;DHT22;36732;47.980;11.652;2023-08-01T04:17:01;22.60;55.40
50758;DHT22;36732;47.980;11.652;2023-08-01T04:19:27;22.60;55.40
50758;DHT22;36732;47.980;11.652;2023-08-01T04:21:52;22.60;55.30
50758;DHT22;36732;47.980;11.652;2023-08-01T04:24:18;22.50;55.30
50758;DHT22;36732;47.980;11.652;2023-08-01T04:26:44;22.50;55.30
50758;DHT22;36732;47.980;11.652;2023-08-01T04:29:09;22.50;55.20
50758;DHT22;36732;47.980;11.652;2023-08-01T04:31:35;22.50;55.40
50758;DHT22;36732;47.980;11.652;2023-08-01T04:34:01;22.50;55.40
50758;DHT22;36732;47.980;11.652;2023-08-01T04:36:26;22.50;55.40
50758;DHT22;36732;47.980;11.652;2023-08-01T04:38:52;22.50;55.50
50758;DHT22;36732;47.980;11.652;2023-08-01T04:41:18;22.50;55.60
50758;DHT22;36732;47.980;11.652;2023-08-01T04:43:43;22.50;55.70
50758;DHT22;36732;47.980;11.652;2023-08-01T04:46:09;22.50;55.90
50758;DHT22;36732;47.980;11.652;2023-08-01T04:48:35;22.50;56.00
50758;DHT22;36732;47.980;11.652;2023-08-01T04:51:01;22.50;56.10
50758;DHT22;36732;47.980;11.652;2023-08-01T04:53:26;22.50;56.40
50758;DHT22;36732;47.980;11.652;2023-08-01T04:55:52;22.50;56.40
50758;DHT22;36732;47.980;11.652;2023-08-01T04:58:18;22.50;56.40
50758;DHT22;36732;47.980;11.652;2023-08-01T05:00:43;22.50;56.60
50758;DHT22;36732;47.980;11.652;2023-08-01T05:03:09;22.50;56.50
50758;DHT22;36732;47.980;11.652;2023-08-01T05:05:35;22.50;56.70
50758;DHT22;36732;47.980;11.652;2023-08-01T05:08:00;22.50;56.70
50758;DHT22;36732;47.980;11.652;2023-08-01T05:10:26;22.40;56.90
50758;DHT22;36732;47.980;11.652;2023-08-01T05:12:52;22.50;57.10
50758;DHT22;36732;47.980;11.652;2023-08-01T05:15:18;22.40;57.20
50758;DHT22;36732;47.980;11.652;2023-08-01T05:17:43;22.40;57.50
50758;DHT22;36732;47.980;11.652;2023-08-01T05:20:09;22.40;57.70
50758;DHT22;36732;47.980;11.652;2023-08-01T05:22:35;22.40;57.80
50758;DHT22;36732;47.980;11.652;2023-08-01T05:25:01;22.40;57.80
50758;DHT22;36732;47.980;11.652;2023-08-01T05:27:27;22.40;58.00
50758;DHT22;36732;47.980;11.652;2023-08-01T05:29:53;22.40;58.20
50758;DHT22;36732;47.980;11.652;2023-08-01T05:32:18;22.40;58.30
50758;DHT22;36732;47.980;11.652;2023-08-01T05:34:44;22.40;58.40
50758;DHT22;36732;47.980;11.652;2023-08-01T05:37:10;22.40;58.50
50758;DHT22;36732;47.980;11.652;2023-08-01T05:39:35;22.40;58.50
50758;DHT22;36732;47.980;11.652;2023-08-01T05:42:01;22.40;58.50
50758;DHT22;36732;47.980;11.652;2023-08-01T05:44:27;22.40;58.70
50758;DHT22;36732;47.980;11.652;2023-08-01T05:46:52;22.40;58.90
50758;DHT22;36732;47.980;11.652;2023-08-01T05:49:18;22.40;59.00
50758;DHT22;36732;47.980;11.652;2023-08-01T05:51:44;22.30;59.10
50758;DHT22;36732;47.980;11.652;2023-08-01T05:54:09;22.30;59.10
50758;DHT22;36732;47.980;11.652;2023-08-01T05:56:35;22.30;59.10
50758;DHT22;36732;47.980;11.652;2023-08-01T05:59:01;22.30;59.30
50758;DHT22;36732;47.980;11.652;2023-08-01T06:01:27;22.30;59.40
50758;DHT22;36732;47.980;11.652;2023-08-01T06:03:53;22.30;59.40
50758;DHT22;36732;47.980;11.652;2023-08-01T06:06:18;22.30;59.70
50758;DHT22;36732;47.980;11.652;2023-08-01T06:08:44;22.30;59.80
50758;DHT22;36732;47.980;11.652;2023-08-01T06:11:10;22.30;60.00
50758;DHT22;36732;47.980;11.652;2023-08-01T06:13:36;22.30;60.00
50758;DHT22;36732;47.980;11.652;2023-08-01T06:16:01;22.30;60.00
50758;DHT22;36732;47.980;11.652;2023-08-01T06:18:27;22.30;60.00
50758;DHT22;36732;47.980;11.652;2023-08-01T06:20:53;22.30;60.00
50758;DHT22;36732;47.980;11.652;2023-08-01T06:23:19;22.30;60.00
50758;DHT22;36732;47.980;11.652;2023-08-01T06:25:45;22.30;60.00
50758;DHT22;36732;47.980;11.652;2023-08-01T06:28:10;22.30;59.80
50758;DHT22;36732;47.980;11.652;2023-08-01T06:30:36;22.30;59.70
50758;DHT22;36732;47.980;11.652;2023-08-01T06:33:02;22.30;60.00
50758;DHT22;36732;47.980;11.652;2023-08-01T06:35:28;22.30;60.00
50758;DHT22;36732;47.980;11.652;2023-08-01T06:37:53;22.30;60.00
50758;DHT22;36732;47.980;11.652;2023-08-01T06:40:19;22.30;60.00
50758;DHT22;36732;47.980;11.652;2023-08-01T06:42:45;22.30;60.20
50758;DHT22;36732;47.980;11.652;2023-08-01T06:45:11;22.30;60.00
50758;DHT22;36732;47.980;11.652;2023-08-01T06:47:36;22.30;60.00
50758;DHT22;36732;47.980;11.652;2023-08-01T06:50:02;22.30;60.00
50758;DHT22;36732;47.980;11.652;2023-08-01T06:52:28;22.30;60.00
50758;DHT22;36732;47.980;11.652;2023-08-01T06:54:53;22.30;60.00
50758;DHT22;36732;47.980;11.652;2023-08-01T06:57:19;22.30;60.00
50758;DHT22;36732;47.980;11.652;2023-08-01T06:59:45;22.30;60.10
50758;DHT22;36732;47.980;11.652;2023-08-01T07:02:11;22.30;60.00
50758;DHT22;36732;47.980;11.652;2023-08-01T07:04:37;22.30;60.00
50758;DHT22;36732;47.980;11.652;2023-08-01T07:07:03;22.30;60.00
50758;DHT22;36732;47.980;11.652;2023-08-01T07:09:29;22.30;60.00
50758;DHT22;36732;47.980;11.652;2023-08-01T07:11:54;22.30;60.00
50758;DHT22;36732;47.980;11.652;2023-08-01T07:14:20;22.30;60.00
50758;DHT22;36732;47.980;11.652;2023-08-01T07:16:46;22.30;60.00
50758;DHT22;36732;47.980;11.652;2023-08-01T07:19:11;22.30;60.00
50758;DHT22;36732;47.980;11.652;2023-08-01T07:21:37;22.30;60.00
50758;DHT22;36732;47.980;11.652;2023-08-01T07:24:03;22.30;60.00
50758;DHT22;36732;47.980;11.652;2023-08-01T07:26:29;22.30;59.90
50758;DHT22;36732;47.980;11.652;2023-08-01T07:28:55;22.20;59.80
50758;DHT22;36732;47.980;11.652;2023-08-01T07:31:21;22.30;59.80
50758;DHT22;36732;47.980;11.652;2023-08-01T07:33:46;22.30;59.70
50758;DHT22;36732;47.980;11.652;2023-08-01T07:36:12;22.30;60.30
50758;DHT22;36732;47.980;11.652;2023-08-01T07:38:38;22.30;59.80
50758;DHT22;36732;47.980;11.652;2023-08-01T07:41:05;22.30;59.70
50758;DHT22;36732;47.980;11.652;2023-08-01T07:43:32;22.30;59.60
50758;DHT22;36732;47.980;11.652;2023-08-01T07:45:59;22.30;59.50
50758;DHT22;36732;47.980;11.652;2023-08-01T07:48:25;22.30;59.60
50758;DHT22;36732;47.980;11.652;2023-08-01T07:50:51;22.30;59.50
50758;DHT22;36732;47.980;11.652;2023-08-01T07:53:16;22.30;59.60
50758;DHT22;36732;47.980;11.652;2023-08-01T07:55:42;22.30;59.60
50758;DHT22;36732;47.980;11.652;2023-08-01T07:58:08;22.30;59.50
50758;DHT22;36732;47.980;11.652;2023-08-01T08:00:37;22.30;59.40
50758;DHT22;36732;47.980;11.652;2023-08-01T08:03:04;22.30;59.80
50758;DHT22;36732;47.980;11.652;2023-08-01T08:05:31;22.30;59.70
50758;DHT22;36732;47.980;11.652;2023-08-01T08:07:57;22.30;59.70
50758;DHT22;36732;47.980;11.652;2023-08-01T08:10:22;22.30;59.60
50758;DHT22;36732;47.980;11.652;2023-08-01T08:12:48;22.30;59.70
50758;DHT22;36732;47.980;11.652;2023-08-01T08:15:14;22.30;59.80
50758;DHT22;36732;47.980;11.652;2023-08-01T08:17:41;22.30;59.90
50758;DHT22;36732;47.980;11.652;2023-08-01T08:20:07;22.30;59.70
50758;DHT22;36732;47.980;11.652;2023-08-01T08:22:33;22.30;60.00
50758;DHT22;36732;47.980;11.652;2023-08-01T08:24:58;22.30;60.00
50758;DHT22;36732;47.980;11.652;2023-08-01T08:27:24;22.40;60.00
50758;DHT22;36732;47.980;11.652;2023-08-01T08:29:50;22.40;60.00
50758;DHT22;36732;47.980;11.652;2023-08-01T08:32:16;22.40;60.00
50758;DHT22;36732;47.980;11.652;2023-08-01T08:34:42;22.40;60.00
50758;DHT22;36732;47.980;11.652;2023-08-01T08:37:07;22.40;60.00
50758;DHT22;36732;47.980;11.652;2023-08-01T08:39:33;22.40;59.80
50758;DHT22;36732;47.980;11.652;2023-08-01T08:41:59;22.40;59.80
50758;DHT22;36732;47.980;11.652;2023-08-01T08:44:25;22.40;60.00
50758;DHT22;36732;47.980;11.652;2023-08-01T08:46:54;22.40;60.00
50758;DHT22;36732;47.980;11.652;2023-08-01T08:49:21;22.40;60.00
50758;DHT22;36732;47.980;11.652;2023-08-01T08:51:48;22.40;60.00
50758;DHT22;36732;47.980;11.652;2023-08-01T08:54:16;22.40;60.10
50758;DHT22;36732;47.980;11.652;2023-08-01T08:56:42;22.40;60.10
50758;DHT22;36732;47.980;11.652;2023-08-01T08:59:09;22.50;60.10
50758;DHT22;36732;47.980;11.652;2023-08-01T09:01:36;22.50;60.60
50758;DHT22;36732;47.980;11.652;2023-08-01T09:04:02;22.50;60.50
50758;DHT22;36732;47.980;11.652;2023-08-01T09:06:31;22.50;61.20
50758;DHT22;36732;47.980;11.652;2023-08-01T09:09:09;22.50;60.70
50758;DHT22;36732;47.980;11.652;2023-08-01T09:11:47;22.50;60.50
50758;DHT22;36732;47.980;11.652;2023-08-01T09:14:15;22.50;60.30
50758;DHT22;36732;47.980;11.652;2023-08-01T09:16:43;22.50;60.10
50758;DHT22;36732;47.980;11.652;2023-08-01T09:19:10;22.50;60.10
50758;DHT22;36732;47.980;11.652;2023-08-01T09:21:39;22.50;60.10
50758;DHT22;36732;47.980;11.652;2023-08-01T09:24:18;22.50;60.10
50758;DHT22;36732;47.980;11.652;2023-08-01T09:26:46;22.50;60.70
50758;DHT22;36732;47.980;11.652;2023-08-01T09:29:12;22.50;60.50
50758;DHT22;36732;47.980;11.652;2023-08-01T09:31:42;22.50;60.60
50758;DHT22;36732;47.980;11.652;2023-08-01T09:34:26;22.50;60.80
50758;DHT22;36732;47.980;11.652;2023-08-01T09:36:58;22.50;60.90
50758;DHT22;36732;47.980;11.652;2023-08-01T09:39:24;22.50;60.60
50758;DHT22;36732;47.980;11.652;2023-08-01T09:42:01;22.60;60.20
50758;DHT22;36732;47.980;11.652;2023-08-01T09:44:28;22.50;60.20
50758;DHT22;36732;47.980;11.652;2023-08-01T09:46:58;22.50;60.10
50758;DHT22;36732;47.980;11.652;2023-08-01T09:49:25;22.50;60.10
50758;DHT22;36732;47.980;11.652;2023-08-01T09:51:51;22.50;60.10
50758;DHT22;36732;47.980;11.652;2023-08-01T09:54:18;22.50;60.10
50758;DHT22;36732;47.980;11.652;2023-08-01T09:56:46;22.50;60.40
50758;DHT22;36732;47.980;11.652;2023-08-01T10:01:51;22.50;61.10
50758;DHT22;36732;47.980;11.652;2023-08-01T10:04:25;22.50;61.10
50758;DHT22;36732;47.980;11.652;2023-08-01T10:06:57;22.50;61.30
50758;DHT22;36732;47.980;11.652;2023-08-01T10:09:25;22.50;61.50
50758;DHT22;36732;47.980;11.652;2023-08-01T10:11:51;22.50;61.20
50758;DHT22;36732;47.980;11.652;2023-08-01T10:14:19;22.50;61.40
50758;DHT22;36732;47.980;11.652;2023-08-01T10:16:45;22.50;61.70
50758;DHT22;36732;47.980;11.652;2023-08-01T10:19:13;22.50;60.90
50758;DHT22;36732;47.980;11.652;2023-08-01T10:21:41;22.50;60.80
50758;DHT22;36732;47.980;11.652;2023-08-01T10:24:08;22.50;60.60
50758;DHT22;36732;47.980;11.652;2023-08-01T10:26:34;22.50;60.60
50758;DHT22;36732;47.980;11.652;2023-08-01T10:29:00;22.50;60.50
50758;DHT22;36732;47.980;11.652;2023-08-01T10:31:27;22.50;60.40
50758;DHT22;36732;47.980;11.652;2023-08-01T10:34:04;22.50;60.60
50758;DHT22;36732;47.980;11.652;2023-08-01T10:36:31;22.50;60.90
50758;DHT22;36732;47.980;11.652;2023-08-01T10:38:59;22.50;60.80
50758;DHT22;36732;47.980;11.652;2023-08-01T10:41:34;22.50;61.00
50758;DHT22;36732;47.980;11.652;2023-08-01T10:44:12;22.50;61.30
50758;DHT22;36732;47.980;11.652;2023-08-01T10:49:16;22.50;61.10
50758;DHT22;36732;47.980;11.652;2023-08-01T10:51:43;22.50;60.90
50758;DHT22;36732;47.980;11.652;2023-08-01T10:54:23;22.60;60.20
50758;DHT22;36732;47.980;11.652;2023-08-01T10:56:55;22.50;60.10
50758;DHT22;36732;47.980;11.652;2023-08-01T10:59:23;22.60;59.80
50758;DHT22;36732;47.980;11.652;2023-08-01T11:01:53;22.60;59.70
50758;DHT22;36732;47.980;11.652;2023-08-01T11:04:24;22.50;59.50
50758;DHT22;36732;47.980;11.652;2023-08-01T11:06:51;22.50;59.50
50758;DHT22;36732;47.980;11.652;2023-08-01T11:09:27;22.50;59.40
50758;DHT22;36732;47.980;11.652;2023-08-01T11:11:57;22.50;59.70
50758;DHT22;36732;47.980;11.652;2023-08-01T11:14:28;22.50;59.60
50758;DHT22;36732;47.980;11.652;2023-08-01T11:16:55;22.50;59.80
50758;DHT22;36732;47.980;11.652;2023-08-01T11:19:27;22.50;59.80
50758;DHT22;36732;47.980;11.652;2023-08-01T11:21:54;22.50;59.90
50758;DHT22;36732;47.980;11.652;2023-08-01T11:24:25;22.50;59.70
50758;DHT22;36732;47.980;11.652;2023-08-01T11:26:53;22.40;59.80
50758;DHT22;36732;47.980;11.652;2023-08-01T11:29:20;22.40;60.00
50758;DHT22;36732;47.980;11.652;2023-08-01T11:31:59;22.40;60.10
50758;DHT22;36732;47.980;11.652;2023-08-01T11:34:25;22.40;60.40
50758;DHT22;36732;47.980;11.652;2023-08-01T11:36:52;22.40;60.50
50758;DHT22;36732;47.980;11.652;2023-08-01T11:39:18;22.40;60.50
50758;DHT22;36732;47.980;11.652;2023-08-01T11:41:44;22.40;60.80
50758;DHT22;36732;47.980;11.652;2023-08-01T11:44:10;22.30;60.90
50758;DHT22;36732;47.980;11.652;2023-08-01T11:46:37;22.30;60.90
50758;DHT22;36732;47.980;11.652;2023-08-01T11:49:07;22.30;61.00
50758;DHT22;36732;47.980;11.652;2023-08-01T11:51:44;22.30;61.00
50758;DHT22;36732;47.980;11.652;2023-08-01T11:54:10;22.30;61.40
50758;DHT22;36732;47.980;11.652;2023-08-01T11:56:39;22.30;61.40
50758;DHT22;36732;47.980;11.652;2023-08-01T11:59:13;22.30;61.50
50758;DHT22;36732;47.980;11.652;2023-08-01T12:01:42;22.30;62.00
50758;DHT22;36732;47.980;11.652;2023-08-01T12:04:09;22.30;62.30
50758;DHT22;36732;47.980;11.652;2023-08-01T12:06:35;22.30;61.70
50758;DHT22;36732;47.980;11.652;2023-08-01T12:09:08;22.30;61.70
50758;DHT22;36732;47.980;11.652;2023-08-01T12:11:34;22.30;61.80
50758;DHT22;36732;47.980;11.652;2023-08-01T12:14:04;22.30;61.60
50758;DHT22;36732;47.980;11.652;2023-08-01T12:16:35;22.30;61.80
50758;DHT22;36732;47.980;11.652;2023-08-01T12:19:01;22.30;61.70
50758;DHT22;36732;47.980;11.652;2023-08-01T12:21:31;22.30;61.70
50758;DHT22;36732;47.980;11.652;2023-08-01T12:23:58;22.30;61.70
50758;DHT22;36732;47.980;11.652;2023-08-01T12:26:24;22.30;61.60
50758;DHT22;36732;47.980;11.652;2023-08-01T12:28:50;22.30;61.60
50758;DHT22;36732;47.980;11.652;2023-08-01T12:31:17;22.30;61.50
50758;DHT22;36732;47.980;11.652;2023-08-01T12:33:46;22.30;61.40
50758;DHT22;36732;47.980;11.652;2023-08-01T12:36:13;22.30;61.60
50758;DHT22;36732;47.980;11.652;2023-08-01T12:38:40;22.30;61.10
50758;DHT22;36732;47.980;11.652;2023-08-01T12:41:06;22.40;61.30
50758;DHT22;36732;47.980;11.652;2023-08-01T12:43:32;22.40;61.30
50758;DHT22;36732;47.980;11.652;2023-08-01T12:45:58;22.40;61.40
50758;DHT22;36732;47.980;11.652;2023-08-01T12:48:28;22.40;61.50
50758;DHT22;36732;47.980;11.652;2023-08-01T12:50:54;22.40;61.80
50758;DHT22;36732;47.980;11.652;2023-08-01T12:53:20;22.40;61.70
50758;DHT22;36732;47.980;11.652;2023-08-01T12:55:48;22.40;61.60
50758;DHT22;36732;47.980;11.652;2023-08-01T12:58:15;22.40;61.50
50758;DHT22;36732;47.980;11.652;2023-08-01T13:00:42;22.40;61.60
50758;DHT22;36732;47.980;11.652;2023-08-01T13:03:09;22.50;61.80
50758;DHT22;36732;47.980;11.652;2023-08-01T13:05:37;22.50;61.90
50758;DHT22;36732;47.980;11.652;2023-08-01T13:08:04;22.50;61.80
50758;DHT22;36732;47.980;11.652;2023-08-01T13:10:31;22.50;61.90
50758;DHT22;36732;47.980;11.652;2023-08-01T13:12:57;22.50;62.00
50758;DHT22;36732;47.980;11.652;2023-08-01T13:15:23;22.50;61.90
50758;DHT22;36732;47.980;11.652;2023-08-01T13:17:50;22.50;61.90
50758;DHT22;36732;47.980;11.652;2023-08-01T13:20:16;22.50;61.90
50758;DHT22;36732;47.980;11.652;2023-08-01T13:22:42;22.60;61.80
50758;DHT22;36732;47.980;11.652;2023-08-01T13:25:10;22.60;61.60
50758;DHT22;36732;47.980;11.652;2023-08-01T13:27:36;22.60;61.50
50758;DHT22;36732;47.980;11.652;2023-08-01T13:30:02;22.60;61.30
50758;DHT22;36732;47.980;11.652;2023-08-01T13:32:28;22.60;61.20
50758;DHT22;36732;47.980;11.652;2023-08-01T13:34:54;22.60;61.20
50758;DHT22;36732;47.980;11.652;2023-08-01T13:37:19;22.60;61.00
50758;DHT22;36732;47.980;11.652;2023-08-01T13:39:45;22.60;61.00
50758;DHT22;36732;47.980;11.652;2023-08-01T13:42:14;22.60;61.00
50758;DHT22;36732;47.980;11.652;2023-08-01T13:44:40;22.60;61.20
50758;DHT22;36732;47.980;11.652;2023-08-01T13:47:07;22.70;61.10
50758;DHT22;36732;47.980;11.652;2023-08-01T13:49:33;22.70;61.00
50758;DHT22;36732;47.980;11.652;2023-08-01T13:51:59;22.70;60.90
50758;DHT22;36732;47.980;11.652;2023-08-01T13:54:25;22.70;60.80
50758;DHT22;36732;47.980;11.652;2023-08-01T13:56:51;22.70;60.80
50758;DHT22;36732;47.980;11.652;2023-08-01T13:59:18;22.70;60.70
50758;DHT22;36732;47.980;11.652;2023-08-01T14:01:46;22.70;60.60
50758;DHT22;36732;47.980;11.652;2023-08-01T14:04:12;22.80;60.70
50758;DHT22;36732;47.980;11.652;2023-08-01T14:06:40;22.80;60.80
50758;DHT22;36732;47.980;11.652;2023-08-01T14:09:10;22.80;60.80
50758;DHT22;36732;47.980;11.652;2023-08-01T14:11:36;22.80;60.60
50758;DHT22;36732;47.980;11.652;2023-08-01T14:14:02;22.80;60.30
50758;DHT22;36732;47.980;11.652;2023-08-01T14:16:29;22.80;60.30
50758;DHT22;36732;47.980;11.652;2023-08-01T14:18:55;22.90;60.10
50758;DHT22;36732;47.980;11.652;2023-08-01T14:21:20;22.90;60.00
50758;DHT22;36732;47.980;11.652;2023-08-01T14:23:46;22.90;59.80
50758;DHT22;36732;47.980;11.652;2023-08-01T14:26:13;22.90;59.70
50758;DHT22;36732;47.980;11.652;2023-08-01T14:28:39;23.00;59.50
50758;DHT22;36732;47.980;11.652;2023-08-01T14:31:04;23.00;59.40
50758;DHT22;36732;47.980;11.652;2023-08-01T14:33:31;23.00;59.10
50758;DHT22;36732;47.980;11.652;2023-08-01T14:35:57;23.00;58.90
50758;DHT22;36732;47.980;11.652;2023-08-01T14:38:23;23.00;58.80
50758;DHT22;36732;47.980;11.652;2023-08-01T14:40:48;23.00;58.50
50758;DHT22;36732;47.980;11.652;2023-08-01T14:43:14;23.00;58.30
50758;DHT22;36732;47.980;11.652;2023-08-01T14:45:40;23.10;58.10
50758;DHT22;36732;47.980;11.652;2023-08-01T14:48:07;23.10;57.80
50758;DHT22;36732;47.980;11.652;2023-08-01T14:50:33;23.10;57.60
50758;DHT22;36732;47.980;11.652;2023-08-01T14:53:00;23.10;57.60
50758;DHT22;36732;47.980;11.652;2023-08-01T14:55:28;23.00;57.10
50758;DHT22;36732;47.980;11.652;2023-08-01T14:57:54;23.10;56.80
50758;DHT22;36732;47.980;11.652;2023-08-01T15:00:20;23.10;56.50
50758;DHT22;36732;47.980;11.652;2023-08-01T15:02:46;23.10;56.60
50758;DHT22;36732;47.980;11.652;2023-08-01T15:05:13;23.10;56.30
50758;DHT22;36732;47.980;11.652;2023-08-01T15:07:39;23.10;56.10
50758;DHT22;36732;47.980;11.652;2023-08-01T15:10:05;23.10;55.80
50758;DHT22;36732;47.980;11.652;2023-08-01T15:12:31;23.10;55.60
50758;DHT22;36732;47.980;11.652;2023-08-01T15:14:57;23.10;55.60
50758;DHT22;36732;47.980;11.652;2023-08-01T15:17:23;23.00;55.40